sensor_id;sensor_type;location;lat;lon;timestamp;P1;durP1;ratioP1;P2;durP2;ratioP2
20910;SDS011;10615;42.702;23.314;2023-06-26T00:00:35;22.75;;;18.60;;
20910;SDS011;10615;42.702;23.314;2023-06-26T00:01:37;23.13;;;18.88;;
20910;SDS011;10615;42.702;23.314;2023-06-26T00:02:39;21.48;;;18.58;;
20910;SDS011;10615;42.702;23.314;2023-06-26T00:03:40;19.95;;;17.85;;
20910;SDS011;10615;42.702;23.314;2023-06-26T00:04:42;21.08;;;17.40;;
20910;SDS011;10615;42.702;23.314;2023-06-26T00:05:43;23.05;;;18.27;;
20910;SDS011;10615;42.702;23.314;2023-06-26T00:06:44;20.77;;;17.90;;
20910;SDS011;10615;42.702;23.314;2023-06-26T00:07:44;22.20;;;17.70;;
20910;SDS011;10615;42.702;23.314;2023-06-26T00:08:45;19.80;;;17.40;;
20910;SDS011;10615;42.702;23.314;2023-06-26T00:09:45;20.65;;;17.35;;
20910;SDS011;10615;42.702;23.314;2023-06-26T00:10:46;18.83;;;16.83;;
20910;SDS011;10615;42.702;23.314;2023-06-26T00:11:51;20.45;;;16.67;;
20910;SDS011;10615;42.702;23.314;2023-06-26T00:12:52;21.00;;;16.67;;
20910;SDS011;10615;42.702;23.314;2023-06-26T00:13:53;18.92;;;16.95;;
20910;SDS011;10615;42.702;23.314;2023-06-26T00:14:54;20.45;;;16.38;;
20910;SDS011;10615;42.702;23.314;2023-06-26T00:15:55;19.80;;;16.65;;
20910;SDS011;10615;42.702;23.314;2023-06-26T00:16:55;18.95;;;16.60;;
20910;SDS011;10615;42.702;23.314;2023-06-26T00:17:56;18.27;;;15.63;;
20910;SDS011;10615;42.702;23.314;2023-06-26T00:18:58;20.42;;;16.50;;
20910;SDS011;10615;42.702;23.314;2023-06-26T00:19:59;21.73;;;16.83;;
20910;SDS011;10615;42.702;23.314;2023-06-26T00:21:00;19.95;;;16.58;;
20910;SDS011;10615;42.702;23.314;2023-06-26T00:22:00;18.77;;;16.70;;
20910;SDS011;10615;42.702;23.314;2023-06-26T00:23:01;20.33;;;16.27;;
20910;SDS011;10615;42.702;23.314;2023-06-26T00:24:04;19.90;;;16.50;;
20910;SDS011;10615;42.702;23.314;2023-06-26T00:25:05;17.63;;;15.70;;
20910;SDS011;10615;42.702;23.314;2023-06-26T00:26:05;17.08;;;15.23;;
20910;SDS011;10615;42.702;23.314;2023-06-26T00:27:06;18.05;;;15.20;;
20910;SDS011;10615;42.702;23.314;2023-06-26T00:28:07;17.35;;;15.07;;
20910;SDS011;10615;42.702;23.314;2023-06-26T00:29:07;17.80;;;15.90;;
20910;SDS011;10615;42.702;23.314;2023-06-26T00:30:08;18.25;;;15.73;;
20910;SDS011;10615;42.702;23.314;2023-06-26T00:31:09;16.27;;;14.55;;
20910;SDS011;10615;42.702;23.314;2023-06-26T00:32:10;19.88;;;15.23;;
20910;SDS011;10615;42.702;23.314;2023-06-26T00:33:11;17.55;;;15.48;;
20910;SDS011;10615;42.702;23.314;2023-06-26T00:34:11;16.08;;;14.20;;
20910;SDS011;10615;42.702;23.314;2023-06-26T00:35:12;19.40;;;15.55;;
20910;SDS011;10615;42.702;23.314;2023-06-26T00:36:13;17.80;;;15.00;;
20910;SDS011;10615;42.702;23.314;2023-06-26T00:37:14;17.52;;;15.57;;
20910;SDS011;10615;42.702;23.314;2023-06-26T00:38:15;17.58;;;15.63;;
20910;SDS011;10615;42.702;23.314;2023-06-26T00:39:17;16.25;;;14.35;;
20910;SDS011;10615;42.702;23.314;2023-06-26T00:40:18;16.15;;;14.55;;
20910;SDS011;10615;42.702;23.314;2023-06-26T00:41:19;20.02;;;15.65;;
20910;SDS011;10615;42.702;23.314;2023-06-26T00:42:19;18.73;;;15.02;;
20910;SDS011;10615;42.702;23.314;2023-06-26T00:43:20;16.27;;;14.57;;
20910;SDS011;10615;42.702;23.314;2023-06-26T00:44:21;18.40;;;14.98;;
20910;SDS011;10615;42.702;23.314;2023-06-26T00:45:21;18.50;;;13.82;;
20910;SDS011;10615;42.702;23.314;2023-06-26T00:46:22;16.13;;;14.38;;
20910;SDS011;10615;42.702;23.314;2023-06-26T00:47:24;19.17;;;14.18;;
20910;SDS011;10615;42.702;23.314;2023-06-26T00:48:25;15.45;;;13.82;;
20910;SDS011;10615;42.702;23.314;2023-06-26T00:49:26;15.30;;;13.70;;
20910;SDS011;10615;42.702;23.314;2023-06-26T00:50:27;16.02;;;13.50;;
20910;SDS011;10615;42.702;23.314;2023-06-26T00:51:29;16.48;;;14.10;;
20910;SDS011;10615;42.702;23.314;2023-06-26T00:52:31;15.68;;;13.85;;
20910;SDS011;10615;42.702;23.314;2023-06-26T00:53:32;15.52;;;13.77;;
20910;SDS011;10615;42.702;23.314;2023-06-26T00:54:33;18.15;;;15.10;;
20910;SDS011;10615;42.702;23.314;2023-06-26T00:55:34;15.38;;;13.88;;
20910;SDS011;10615;42.702;23.314;2023-06-26T00:56:35;14.93;;;13.43;;
20910;SDS011;10615;42.702;23.314;2023-06-26T00:57:36;15.82;;;13.23;;
20910;SDS011;10615;42.702;23.314;2023-06-26T00:58:37;15.20;;;13.63;;
20910;SDS011;10615;42.702;23.314;2023-06-26T00:59:38;14.43;;;12.88;;
20910;SDS011;10615;42.702;23.314;2023-06-26T01:00:39;16.65;;;13.32;;
20910;SDS011;10615;42.702;23.314;2023-06-26T01:01:40;15.25;;;13.65;;
20910;SDS011;10615;42.702;23.314;2023-06-26T01:02:41;14.57;;;13.10;;
20910;SDS011;10615;42.702;23.314;2023-06-26T01:03:42;14.32;;;12.82;;
20910;SDS011;10615;42.702;23.314;2023-06-26T01:04:44;17.15;;;13.60;;
20910;SDS011;10615;42.702;23.314;2023-06-26T01:05:46;16.45;;;13.32;;
20910;SDS011;10615;42.702;23.314;2023-06-26T01:06:49;13.95;;;12.23;;
20910;SDS011;10615;42.702;23.314;2023-06-26T01:07:52;14.52;;;13.02;;
20910;SDS011;10615;42.702;23.314;2023-06-26T01:08:53;14.50;;;12.52;;
20910;SDS011;10615;42.702;23.314;2023-06-26T01:09:54;16.58;;;13.10;;
20910;SDS011;10615;42.702;23.314;2023-06-26T01:10:55;15.93;;;13.60;;
20910;SDS011;10615;42.702;23.314;2023-06-26T01:11:56;15.05;;;13.45;;
20910;SDS011;10615;42.702;23.314;2023-06-26T01:12:57;13.68;;;12.23;;
20910;SDS011;10615;42.702;23.314;2023-06-26T01:13:57;17.10;;;12.48;;
20910;SDS011;10615;42.702;23.314;2023-06-26T01:15:01;14.85;;;12.98;;
20910;SDS011;10615;42.702;23.314;2023-06-26T01:16:02;17.27;;;12.77;;
20910;SDS011;10615;42.702;23.314;2023-06-26T01:17:04;14.43;;;12.68;;
20910;SDS011;10615;42.702;23.314;2023-06-26T01:18:07;16.23;;;12.85;;
20910;SDS011;10615;42.702;23.314;2023-06-26T01:19:10;14.95;;;13.15;;
20910;SDS011;10615;42.702;23.314;2023-06-26T01:20:15;14.63;;;12.80;;
20910;SDS011;10615;42.702;23.314;2023-06-26T01:21:16;19.40;;;12.60;;
20910;SDS011;10615;42.702;23.314;2023-06-26T01:23:22;13.50;;;12.10;;
20910;SDS011;10615;42.702;23.314;2023-06-26T01:24:32;15.80;;;12.80;;
20910;SDS011;10615;42.702;23.314;2023-06-26T01:25:41;14.27;;;12.70;;
20910;SDS011;10615;42.702;23.314;2023-06-26T01:26:55;14.55;;;12.13;;
20910;SDS011;10615;42.702;23.314;2023-06-26T01:27:57;15.15;;;12.60;;
20910;SDS011;10615;42.702;23.314;2023-06-26T01:28:59;14.63;;;12.43;;
20910;SDS011;10615;42.702;23.314;2023-06-26T01:30:02;14.55;;;12.95;;
20910;SDS011;10615;42.702;23.314;2023-06-26T01:31:04;13.73;;;12.18;;
20910;SDS011;10615;42.702;23.314;2023-06-26T01:32:06;14.48;;;12.48;;
20910;SDS011;10615;42.702;23.314;2023-06-26T01:33:07;13.55;;;12.23;;
20910;SDS011;10615;42.702;23.314;2023-06-26T01:34:08;14.52;;;12.50;;
20910;SDS011;10615;42.702;23.314;2023-06-26T01:35:09;13.63;;;12.30;;
20910;SDS011;10615;42.702;23.314;2023-06-26T01:36:11;15.27;;;12.38;;
20910;SDS011;10615;42.702;23.314;2023-06-26T01:37:11;16.23;;;12.32;;
20910;SDS011;10615;42.702;23.314;2023-06-26T01:38:13;14.75;;;13.05;;
20910;SDS011;10615;42.702;23.314;2023-06-26T01:39:18;16.13;;;12.10;;
20910;SDS011;10615;42.702;23.314;2023-06-26T01:40:19;13.85;;;12.25;;
20910;SDS011;10615;42.702;23.314;2023-06-26T01:41:20;14.80;;;12.40;;
20910;SDS011;10615;42.702;23.314;2023-06-26T01:42:21;14.07;;;12.55;;
20910;SDS011;10615;42.702;23.314;2023-06-26T01:44:47;14.63;;;12.73;;
20910;SDS011;10615;42.702;23.314;2023-06-26T01:45:48;13.77;;;12.00;;
20910;SDS011;10615;42.702;23.314;2023-06-26T01:48:03;15.55;;;12.40;;
20910;SDS011;10615;42.702;23.314;2023-06-26T01:49:08;16.95;;;12.57;;
20910;SDS011;10615;42.702;23.314;2023-06-26T01:50:28;14.25;;;12.60;;
20910;SDS011;10615;42.702;23.314;2023-06-26T01:51:39;14.20;;;12.70;;
20910;SDS011;10615;42.702;23.314;2023-06-26T01:53:59;14.60;;;12.90;;
20910;SDS011;10615;42.702;23.314;2023-06-26T01:56:26;15.68;;;13.05;;
20910;SDS011;10615;42.702;23.314;2023-06-26T01:57:29;16.85;;;13.07;;
20910;SDS011;10615;42.702;23.314;2023-06-26T01:58:32;14.32;;;12.82;;
20910;SDS011;10615;42.702;23.314;2023-06-26T01:59:33;16.40;;;12.93;;
20910;SDS011;10615;42.702;23.314;2023-06-26T02:00:34;15.90;;;13.65;;
20910;SDS011;10615;42.702;23.314;2023-06-26T02:01:36;17.65;;;13.70;;
20910;SDS011;10615;42.702;23.314;2023-06-26T02:02:38;14.48;;;12.95;;
20910;SDS011;10615;42.702;23.314;2023-06-26T02:03:42;20.35;;;13.88;;
20910;SDS011;10615;42.702;23.314;2023-06-26T02:04:42;15.63;;;13.60;;
20910;SDS011;10615;42.702;23.314;2023-06-26T02:05:43;15.35;;;13.68;;
20910;SDS011;10615;42.702;23.314;2023-06-26T02:06:44;15.45;;;12.73;;
20910;SDS011;10615;42.702;23.314;2023-06-26T02:07:45;15.48;;;13.32;;
20910;SDS011;10615;42.702;23.314;2023-06-26T02:08:45;15.80;;;13.43;;
20910;SDS011;10615;42.702;23.314;2023-06-26T02:09:46;15.55;;;13.45;;
20910;SDS011;10615;42.702;23.314;2023-06-26T02:10:47;15.90;;;13.60;;
20910;SDS011;10615;42.702;23.314;2023-06-26T02:11:48;15.77;;;13.70;;
20910;SDS011;10615;42.702;23.314;2023-06-26T02:12:48;15.38;;;12.88;;
20910;SDS011;10615;42.702;23.314;2023-06-26T02:13:49;14.30;;;12.90;;
20910;SDS011;10615;42.702;23.314;2023-06-26T02:14:50;13.93;;;12.45;;
20910;SDS011;10615;42.702;23.314;2023-06-26T02:15:51;17.17;;;13.52;;
20910;SDS011;10615;42.702;23.314;2023-06-26T02:16:51;17.67;;;13.52;;
20910;SDS011;10615;42.702;23.314;2023-06-26T02:17:52;15.95;;;12.80;;
20910;SDS011;10615;42.702;23.314;2023-06-26T02:18:53;16.85;;;13.65;;
20910;SDS011;10615;42.702;23.314;2023-06-26T02:19:53;16.67;;;13.63;;
20910;SDS011;10615;42.702;23.314;2023-06-26T02:20:54;16.63;;;13.45;;
20910;SDS011;10615;42.702;23.314;2023-06-26T02:21:55;14.95;;;13.38;;
20910;SDS011;10615;42.702;23.314;2023-06-26T02:22:55;15.52;;;13.45;;
20910;SDS011;10615;42.702;23.314;2023-06-26T02:23:56;15.15;;;13.52;;
20910;SDS011;10615;42.702;23.314;2023-06-26T02:24:57;16.08;;;14.38;;
20910;SDS011;10615;42.702;23.314;2023-06-26T02:25:57;15.70;;;14.10;;
20910;SDS011;10615;42.702;23.314;2023-06-26T02:26:58;15.30;;;13.63;;
20910;SDS011;10615;42.702;23.314;2023-06-26T02:27:59;15.35;;;13.70;;
20910;SDS011;10615;42.702;23.314;2023-06-26T02:28:59;17.10;;;14.15;;
20910;SDS011;10615;42.702;23.314;2023-06-26T02:30:00;15.48;;;13.88;;
20910;SDS011;10615;42.702;23.314;2023-06-26T02:31:01;18.42;;;14.90;;
20910;SDS011;10615;42.702;23.314;2023-06-26T02:32:01;20.52;;;14.68;;
20910;SDS011;10615;42.702;23.314;2023-06-26T02:33:02;16.85;;;13.70;;
20910;SDS011;10615;42.702;23.314;2023-06-26T02:34:03;16.90;;;13.85;;
20910;SDS011;10615;42.702;23.314;2023-06-26T02:35:04;18.70;;;14.15;;
20910;SDS011;10615;42.702;23.314;2023-06-26T02:36:05;15.93;;;14.25;;
20910;SDS011;10615;42.702;23.314;2023-06-26T02:37:06;18.63;;;15.25;;
20910;SDS011;10615;42.702;23.314;2023-06-26T02:38:07;18.80;;;14.60;;
20910;SDS011;10615;42.702;23.314;2023-06-26T02:39:08;17.02;;;14.65;;
20910;SDS011;10615;42.702;23.314;2023-06-26T02:40:09;17.30;;;15.50;;
20910;SDS011;10615;42.702;23.314;2023-06-26T02:41:10;19.13;;;15.68;;
20910;SDS011;10615;42.702;23.314;2023-06-26T02:42:10;17.02;;;15.40;;
20910;SDS011;10615;42.702;23.314;2023-06-26T02:43:11;17.13;;;15.27;;
20910;SDS011;10615;42.702;23.314;2023-06-26T02:44:12;17.30;;;15.43;;
20910;SDS011;10615;42.702;23.314;2023-06-26T02:45:14;17.75;;;15.85;;
20910;SDS011;10615;42.702;23.314;2023-06-26T02:46:15;18.55;;;16.30;;
20910;SDS011;10615;42.702;23.314;2023-06-26T02:47:15;18.85;;;16.45;;
20910;SDS011;10615;42.702;23.314;2023-06-26T02:48:16;20.02;;;16.08;;
20910;SDS011;10615;42.702;23.314;2023-06-26T02:49:16;19.27;;;17.02;;
20910;SDS011;10615;42.702;23.314;2023-06-26T02:50:17;18.70;;;16.60;;
20910;SDS011;10615;42.702;23.314;2023-06-26T02:51:18;19.17;;;16.38;;
20910;SDS011;10615;42.702;23.314;2023-06-26T02:52:18;18.88;;;16.98;;
20910;SDS011;10615;42.702;23.314;2023-06-26T02:53:20;19.42;;;17.33;;
20910;SDS011;10615;42.702;23.314;2023-06-26T02:54:21;19.00;;;17.00;;
20910;SDS011;10615;42.702;23.314;2023-06-26T02:55:21;22.10;;;16.17;;
20910;SDS011;10615;42.702;23.314;2023-06-26T02:56:22;19.75;;;17.80;;
20910;SDS011;10615;42.702;23.314;2023-06-26T02:57:23;18.73;;;16.73;;
20910;SDS011;10615;42.702;23.314;2023-06-26T02:58:23;19.80;;;17.73;;
20910;SDS011;10615;42.702;23.314;2023-06-26T02:59:24;18.67;;;16.75;;
20910;SDS011;10615;42.702;23.314;2023-06-26T03:00:26;20.42;;;18.25;;
20910;SDS011;10615;42.702;23.314;2023-06-26T03:01:26;19.90;;;17.95;;
20910;SDS011;10615;42.702;23.314;2023-06-26T03:02:27;20.83;;;18.58;;
20910;SDS011;10615;42.702;23.314;2023-06-26T03:03:27;19.17;;;17.30;;
20910;SDS011;10615;42.702;23.314;2023-06-26T03:04:28;21.85;;;18.17;;
20910;SDS011;10615;42.702;23.314;2023-06-26T03:05:29;19.80;;;17.70;;
20910;SDS011;10615;42.702;23.314;2023-06-26T03:06:29;20.15;;;18.15;;
20910;SDS011;10615;42.702;23.314;2023-06-26T03:07:30;18.48;;;16.58;;
20910;SDS011;10615;42.702;23.314;2023-06-26T03:08:31;20.10;;;17.92;;
20910;SDS011;10615;42.702;23.314;2023-06-26T03:09:32;19.77;;;17.70;;
20910;SDS011;10615;42.702;23.314;2023-06-26T03:10:32;20.75;;;17.95;;
20910;SDS011;10615;42.702;23.314;2023-06-26T03:11:33;20.23;;;17.95;;
20910;SDS011;10615;42.702;23.314;2023-06-26T03:12:34;20.52;;;17.95;;
20910;SDS011;10615;42.702;23.314;2023-06-26T03:13:34;20.20;;;17.95;;
20910;SDS011;10615;42.702;23.314;2023-06-26T03:14:36;19.92;;;17.83;;
20910;SDS011;10615;42.702;23.314;2023-06-26T03:15:37;20.67;;;18.33;;
20910;SDS011;10615;42.702;23.314;2023-06-26T03:16:37;22.25;;;18.25;;
20910;SDS011;10615;42.702;23.314;2023-06-26T03:17:38;19.38;;;17.30;;
20910;SDS011;10615;42.702;23.314;2023-06-26T03:18:39;19.50;;;17.50;;
20910;SDS011;10615;42.702;23.314;2023-06-26T03:19:39;18.70;;;16.92;;
20910;SDS011;10615;42.702;23.314;2023-06-26T03:20:40;20.00;;;17.77;;
20910;SDS011;10615;42.702;23.314;2023-06-26T03:21:41;19.35;;;17.35;;
20910;SDS011;10615;42.702;23.314;2023-06-26T03:22:41;19.73;;;17.48;;
20910;SDS011;10615;42.702;23.314;2023-06-26T03:23:42;19.40;;;17.13;;
20910;SDS011;10615;42.702;23.314;2023-06-26T03:24:43;19.25;;;17.35;;
20910;SDS011;10615;42.702;23.314;2023-06-26T03:25:45;24.73;;;17.98;;
20910;SDS011;10615;42.702;23.314;2023-06-26T03:26:46;19.88;;;17.73;;
20910;SDS011;10615;42.702;23.314;2023-06-26T03:27:47;19.35;;;17.30;;
20910;SDS011;10615;42.702;23.314;2023-06-26T03:28:47;20.02;;;17.83;;
20910;SDS011;10615;42.702;23.314;2023-06-26T03:29:48;19.15;;;17.25;;
20910;SDS011;10615;42.702;23.314;2023-06-26T03:30:49;19.98;;;17.83;;
20910;SDS011;10615;42.702;23.314;2023-06-26T03:31:49;19.88;;;17.77;;
20910;SDS011;10615;42.702;23.314;2023-06-26T03:32:50;20.17;;;18.02;;
20910;SDS011;10615;42.702;23.314;2023-06-26T03:33:51;19.38;;;17.42;;
20910;SDS011;10615;42.702;23.314;2023-06-26T03:34:51;20.98;;;18.23;;
20910;SDS011;10615;42.702;23.314;2023-06-26T03:35:53;19.08;;;17.13;;
20910;SDS011;10615;42.702;23.314;2023-06-26T03:36:53;22.42;;;18.65;;
20910;SDS011;10615;42.702;23.314;2023-06-26T03:37:54;19.77;;;17.23;;
20910;SDS011;10615;42.702;23.314;2023-06-26T03:38:55;19.58;;;17.50;;
20910;SDS011;10615;42.702;23.314;2023-06-26T03:39:56;18.80;;;16.83;;
20910;SDS011;10615;42.702;23.314;2023-06-26T03:40:57;22.13;;;18.13;;
20910;SDS011;10615;42.702;23.314;2023-06-26T03:41:58;19.42;;;17.08;;
20910;SDS011;10615;42.702;23.314;2023-06-26T03:43:00;19.73;;;17.52;;
20910;SDS011;10615;42.702;23.314;2023-06-26T03:44:01;21.58;;;19.27;;
20910;SDS011;10615;42.702;23.314;2023-06-26T03:45:03;21.48;;;18.95;;
20910;SDS011;10615;42.702;23.314;2023-06-26T03:46:04;21.40;;;19.30;;
20910;SDS011;10615;42.702;23.314;2023-06-26T03:47:04;23.95;;;18.98;;
20910;SDS011;10615;42.702;23.314;2023-06-26T03:48:05;21.85;;;18.15;;
20910;SDS011;10615;42.702;23.314;2023-06-26T03:49:08;23.15;;;18.58;;
20910;SDS011;10615;42.702;23.314;2023-06-26T03:50:08;19.83;;;17.73;;
20910;SDS011;10615;42.702;23.314;2023-06-26T03:51:09;18.98;;;17.00;;
20910;SDS011;10615;42.702;23.314;2023-06-26T03:52:10;19.48;;;17.48;;
20910;SDS011;10615;42.702;23.314;2023-06-26T03:53:11;21.63;;;18.23;;
20910;SDS011;10615;42.702;23.314;2023-06-26T03:54:11;20.35;;;17.95;;
20910;SDS011;10615;42.702;23.314;2023-06-26T03:55:12;19.83;;;17.17;;
20910;SDS011;10615;42.702;23.314;2023-06-26T03:56:13;19.48;;;16.70;;
20910;SDS011;10615;42.702;23.314;2023-06-26T03:57:14;19.35;;;17.25;;
20910;SDS011;10615;42.702;23.314;2023-06-26T03:58:14;19.20;;;17.27;;
20910;SDS011;10615;42.702;23.314;2023-06-26T03:59:15;19.33;;;17.38;;
20910;SDS011;10615;42.702;23.314;2023-06-26T04:00:16;24.50;;;18.45;;
20910;SDS011;10615;42.702;23.314;2023-06-26T04:01:17;18.92;;;16.92;;
20910;SDS011;10615;42.702;23.314;2023-06-26T04:02:19;25.20;;;16.70;;
20910;SDS011;10615;42.702;23.314;2023-06-26T04:03:20;19.58;;;16.55;;
20910;SDS011;10615;42.702;23.314;2023-06-26T04:04:21;21.50;;;17.00;;
20910;SDS011;10615;42.702;23.314;2023-06-26T04:05:22;18.38;;;16.40;;
20910;SDS011;10615;42.702;23.314;2023-06-26T04:06:22;20.15;;;16.67;;
20910;SDS011;10615;42.702;23.314;2023-06-26T04:07:23;17.00;;;15.32;;
20910;SDS011;10615;42.702;23.314;2023-06-26T04:08:24;17.33;;;15.48;;
20910;SDS011;10615;42.702;23.314;2023-06-26T04:09:28;19.98;;;15.80;;
20910;SDS011;10615;42.702;23.314;2023-06-26T04:10:29;19.05;;;15.38;;
20910;SDS011;10615;42.702;23.314;2023-06-26T04:11:29;16.50;;;14.80;;
20910;SDS011;10615;42.702;23.314;2023-06-26T04:12:31;16.42;;;14.73;;
20910;SDS011;10615;42.702;23.314;2023-06-26T04:13:31;19.70;;;14.98;;
20910;SDS011;10615;42.702;23.314;2023-06-26T04:14:32;15.57;;;13.90;;
20910;SDS011;10615;42.702;23.314;2023-06-26T04:15:33;15.77;;;13.93;;
20910;SDS011;10615;42.702;23.314;2023-06-26T04:16:33;15.40;;;13.50;;
20910;SDS011;10615;42.702;23.314;2023-06-26T04:17:34;14.80;;;13.30;;
20910;SDS011;10615;42.702;23.314;2023-06-26T04:18:35;14.40;;;13.00;;
20910;SDS011;10615;42.702;23.314;2023-06-26T04:19:35;15.38;;;13.70;;
20910;SDS011;10615;42.702;23.314;2023-06-26T04:20:40;16.38;;;13.85;;
20910;SDS011;10615;42.702;23.314;2023-06-26T04:22:01;16.45;;;13.45;;
20910;SDS011;10615;42.702;23.314;2023-06-26T04:23:02;15.20;;;13.60;;
20910;SDS011;10615;42.702;23.314;2023-06-26T04:24:02;16.52;;;13.85;;
20910;SDS011;10615;42.702;23.314;2023-06-26T04:25:03;14.57;;;13.18;;
20910;SDS011;10615;42.702;23.314;2023-06-26T04:26:05;14.85;;;13.27;;
20910;SDS011;10615;42.702;23.314;2023-06-26T04:27:06;18.13;;;13.60;;
20910;SDS011;10615;42.702;23.314;2023-06-26T04:28:07;15.23;;;12.90;;
20910;SDS011;10615;42.702;23.314;2023-06-26T04:29:09;15.23;;;12.30;;
20910;SDS011;10615;42.702;23.314;2023-06-26T04:30:10;13.85;;;12.45;;
20910;SDS011;10615;42.702;23.314;2023-06-26T04:31:12;15.05;;;12.32;;
20910;SDS011;10615;42.702;23.314;2023-06-26T04:32:12;12.95;;;11.68;;
20910;SDS011;10615;42.702;23.314;2023-06-26T04:33:13;14.70;;;12.25;;
20910;SDS011;10615;42.702;23.314;2023-06-26T04:34:15;14.65;;;12.20;;
20910;SDS011;10615;42.702;23.314;2023-06-26T04:35:16;12.60;;;11.45;;
20910;SDS011;10615;42.702;23.314;2023-06-26T04:36:17;12.43;;;11.30;;
20910;SDS011;10615;42.702;23.314;2023-06-26T04:37:18;13.40;;;12.00;;
20910;SDS011;10615;42.702;23.314;2023-06-26T04:38:19;13.32;;;12.02;;
20910;SDS011;10615;42.702;23.314;2023-06-26T04:39:20;15.57;;;12.90;;
20910;SDS011;10615;42.702;23.314;2023-06-26T04:40:21;15.10;;;12.52;;
20910;SDS011;10615;42.702;23.314;2023-06-26T04:41:22;13.75;;;12.45;;
20910;SDS011;10615;42.702;23.314;2023-06-26T04:42:22;13.68;;;12.38;;
20910;SDS011;10615;42.702;23.314;2023-06-26T04:43:23;14.13;;;12.35;;
20910;SDS011;10615;42.702;23.314;2023-06-26T04:44:24;13.35;;;11.63;;
20910;SDS011;10615;42.702;23.314;2023-06-26T04:45:25;13.02;;;11.73;;
20910;SDS011;10615;42.702;23.314;2023-06-26T04:46:25;13.30;;;11.95;;
20910;SDS011;10615;42.702;23.314;2023-06-26T04:47:27;13.55;;;12.25;;
20910;SDS011;10615;42.702;23.314;2023-06-26T04:48:28;12.88;;;11.65;;
20910;SDS011;10615;42.702;23.314;2023-06-26T04:49:30;12.70;;;11.50;;
20910;SDS011;10615;42.702;23.314;2023-06-26T04:50:32;15.85;;;12.25;;
20910;SDS011;10615;42.702;23.314;2023-06-26T04:51:33;13.45;;;12.15;;
20910;SDS011;10615;42.702;23.314;2023-06-26T04:52:40;13.27;;;11.88;;
20910;SDS011;10615;42.702;23.314;2023-06-26T04:53:40;15.02;;;11.40;;
20910;SDS011;10615;42.702;23.314;2023-06-26T04:54:42;12.43;;;11.23;;
20910;SDS011;10615;42.702;23.314;2023-06-26T04:55:43;12.88;;;11.57;;
20910;SDS011;10615;42.702;23.314;2023-06-26T04:56:43;12.75;;;11.45;;
20910;SDS011;10615;42.702;23.314;2023-06-26T04:57:47;13.50;;;12.20;;
20910;SDS011;10615;42.702;23.314;2023-06-26T04:58:47;13.10;;;11.88;;
20910;SDS011;10615;42.702;23.314;2023-06-26T04:59:48;12.88;;;11.68;;
20910;SDS011;10615;42.702;23.314;2023-06-26T05:00:49;13.43;;;12.02;;
20910;SDS011;10615;42.702;23.314;2023-06-26T05:01:50;12.30;;;11.10;;
20910;SDS011;10615;42.702;23.314;2023-06-26T05:02:51;12.63;;;11.32;;
20910;SDS011;10615;42.702;23.314;2023-06-26T05:04:01;14.90;;;12.10;;
20910;SDS011;10615;42.702;23.314;2023-06-26T05:05:02;13.05;;;11.77;;
20910;SDS011;10615;42.702;23.314;2023-06-26T05:06:03;14.45;;;11.80;;
20910;SDS011;10615;42.702;23.314;2023-06-26T05:07:03;12.73;;;11.40;;
20910;SDS011;10615;42.702;23.314;2023-06-26T05:09:15;14.15;;;12.43;;
20910;SDS011;10615;42.702;23.314;2023-06-26T05:10:15;13.77;;;12.27;;
20910;SDS011;10615;42.702;23.314;2023-06-26T05:11:17;13.70;;;12.50;;
20910;SDS011;10615;42.702;23.314;2023-06-26T05:12:18;13.95;;;12.60;;
20910;SDS011;10615;42.702;23.314;2023-06-26T05:13:18;14.20;;;12.73;;
20910;SDS011;10615;42.702;23.314;2023-06-26T05:14:19;13.43;;;12.02;;
20910;SDS011;10615;42.702;23.314;2023-06-26T05:15:20;13.98;;;12.52;;
20910;SDS011;10615;42.702;23.314;2023-06-26T05:16:21;15.98;;;12.57;;
20910;SDS011;10615;42.702;23.314;2023-06-26T05:17:21;14.10;;;12.60;;
20910;SDS011;10615;42.702;23.314;2023-06-26T05:18:22;14.18;;;12.88;;
20910;SDS011;10615;42.702;23.314;2023-06-26T05:19:23;14.43;;;12.98;;
20910;SDS011;10615;42.702;23.314;2023-06-26T05:20:23;13.88;;;12.57;;
20910;SDS011;10615;42.702;23.314;2023-06-26T05:21:24;14.07;;;12.68;;
20910;SDS011;10615;42.702;23.314;2023-06-26T05:22:25;14.07;;;12.60;;
20910;SDS011;10615;42.702;23.314;2023-06-26T05:23:26;14.23;;;12.70;;
20910;SDS011;10615;42.702;23.314;2023-06-26T05:24:30;13.95;;;12.50;;
20910;SDS011;10615;42.702;23.314;2023-06-26T05:25:32;19.40;;;13.32;;
20910;SDS011;10615;42.702;23.314;2023-06-26T05:26:34;15.63;;;14.10;;
20910;SDS011;10615;42.702;23.314;2023-06-26T05:27:35;16.00;;;14.50;;
20910;SDS011;10615;42.702;23.314;2023-06-26T05:28:36;14.80;;;13.30;;
20910;SDS011;10615;42.702;23.314;2023-06-26T05:29:37;14.07;;;12.38;;
20910;SDS011;10615;42.702;23.314;2023-06-26T05:30:38;13.52;;;12.13;;
20910;SDS011;10615;42.702;23.314;2023-06-26T05:31:40;15.48;;;13.98;;
20910;SDS011;10615;42.702;23.314;2023-06-26T05:32:42;14.10;;;12.63;;
20910;SDS011;10615;42.702;23.314;2023-06-26T05:33:45;14.98;;;13.48;;
20910;SDS011;10615;42.702;23.314;2023-06-26T05:34:47;13.70;;;12.40;;
20910;SDS011;10615;42.702;23.314;2023-06-26T05:35:49;13.75;;;12.27;;
20910;SDS011;10615;42.702;23.314;2023-06-26T05:36:57;14.38;;;13.02;;
20910;SDS011;10615;42.702;23.314;2023-06-26T05:37:59;17.25;;;14.40;;
20910;SDS011;10615;42.702;23.314;2023-06-26T05:39:00;14.77;;;13.35;;
20910;SDS011;10615;42.702;23.314;2023-06-26T05:40:01;13.75;;;12.45;;
20910;SDS011;10615;42.702;23.314;2023-06-26T05:41:04;17.02;;;12.82;;
20910;SDS011;10615;42.702;23.314;2023-06-26T05:42:05;14.63;;;13.20;;
20910;SDS011;10615;42.702;23.314;2023-06-26T05:43:06;15.55;;;13.45;;
20910;SDS011;10615;42.702;23.314;2023-06-26T05:44:07;15.60;;;13.25;;
20910;SDS011;10615;42.702;23.314;2023-06-26T05:45:08;14.45;;;12.68;;
20910;SDS011;10615;42.702;23.314;2023-06-26T05:46:10;17.92;;;15.45;;
20910;SDS011;10615;42.702;23.314;2023-06-26T05:47:11;23.80;;;20.73;;
20910;SDS011;10615;42.702;23.314;2023-06-26T05:48:12;26.58;;;23.88;;
20910;SDS011;10615;42.702;23.314;2023-06-26T05:49:12;17.95;;;15.38;;
20910;SDS011;10615;42.702;23.314;2023-06-26T05:50:13;15.55;;;13.95;;
20910;SDS011;10615;42.702;23.314;2023-06-26T05:51:14;18.80;;;16.88;;
20910;SDS011;10615;42.702;23.314;2023-06-26T05:52:15;14.23;;;12.65;;
20910;SDS011;10615;42.702;23.314;2023-06-26T05:53:16;15.68;;;12.80;;
20910;SDS011;10615;42.702;23.314;2023-06-26T05:54:17;13.70;;;12.30;;
20910;SDS011;10615;42.702;23.314;2023-06-26T05:55:18;17.77;;;12.55;;
20910;SDS011;10615;42.702;23.314;2023-06-26T05:56:19;13.68;;;11.98;;
20910;SDS011;10615;42.702;23.314;2023-06-26T05:57:20;13.90;;;12.50;;
20910;SDS011;10615;42.702;23.314;2023-06-26T05:58:21;15.82;;;11.38;;
20910;SDS011;10615;42.702;23.314;2023-06-26T05:59:26;14.85;;;11.70;;
20910;SDS011;10615;42.702;23.314;2023-06-26T06:00:27;14.82;;;11.98;;
20910;SDS011;10615;42.702;23.314;2023-06-26T06:01:28;16.15;;;13.27;;